Time;durP1;ratioP1;P1;durP2;ratioP2;P2;SDS_P1;SDS_P2;PMS_P1;PMS_P2;Temp;Humidity;BMP_temperature;BMP_pressure;BME280_temperature;BME280_humidity;BME280_pressure;Samples;Min_cycle;Max_cycle;Signal;HPM_P1;HPM_P2
2023/05/08 00:01:01;;;;;;;1.93;1.83;;;22.70;72.70;;;;;;5158123;27;20885;-84
2023/05/08 00:03:28;;;;;;;2.47;2.27;;;22.70;72.60;;;;;;5158196;27;20473;-84
2023/05/08 00:05:56;;;;;;;2.47;2.20;;;22.70;72.60;;;;;;5157774;27;20544;-84
2023/05/08 00:08:23;;;;;;;1.80;1.70;;;22.70;73.50;;;;;;5157881;27;20437;-84
2023/05/08 00:10:50;;;;;;;1.90;1.80;;;22.70;72.60;;;;;;5157676;27;20448;-84
2023/05/08 00:13:17;;;;;;;1.90;1.80;;;22.70;72.60;;;;;;5157745;27;20429;-85
2023/05/08 00:15:44;;;;;;;2.03;1.93;;;22.70;72.60;;;;;;5157751;27;20482;-84
2023/05/08 00:18:10;;;;;;;1.93;1.83;;;22.70;72.60;;;;;;5157544;27;20464;-84
2023/05/08 00:20:37;;;;;;;2.50;2.30;;;22.70;73.50;;;;;;5157546;27;20441;-84
2023/05/08 00:23:06;;;;;;;2.00;1.90;;;22.70;72.70;;;;;;5157559;27;20433;-84
2023/05/08 00:25:32;;;;;;;2.73;2.53;;;22.70;72.70;;;;;;5157478;27;20757;-84
2023/05/08 00:27:59;;;;;;;2.20;2.10;;;22.70;72.60;;;;;;5157563;27;20443;-84
2023/05/08 00:30:26;;;;;;;1.80;1.70;;;22.70;73.50;;;;;;5157386;27;20443;-84
2023/05/08 00:32:53;;;;;;;2.20;2.10;;;22.70;72.70;;;;;;5157403;27;20438;-84
2023/05/08 00:35:21;;;;;;;1.90;1.80;;;22.70;72.70;;;;;;5157157;27;20575;-84
2023/05/08 00:37:47;;;;;;;2.00;1.90;;;22.70;72.70;;;;;;5157219;27;20520;-84
2023/05/08 00:40:16;;;;;;;2.37;2.17;;;22.70;72.70;;;;;;5157289;27;20444;-84
2023/05/08 00:42:42;;;;;;;2.40;2.20;;;22.70;72.70;;;;;;5157209;27;20437;-84
2023/05/08 00:45:10;;;;;;;2.17;2.07;;;22.70;72.60;;;;;;5157143;27;20528;-84
2023/05/08 00:47:37;;;;;;;2.00;1.90;;;22.70;72.70;;;;;;5157030;27;20935;-84
2023/05/08 00:50:05;;;;;;;2.20;2.10;;;22.70;72.60;;;;;;5156865;27;20439;-84
2023/05/08 00:52:33;;;;;;;2.50;2.40;;;22.70;72.70;;;;;;5157171;27;20460;-84
2023/05/08 00:55:01;;;;;;;2.03;1.93;;;22.70;72.60;;;;;;5156925;27;20473;-84
2023/05/08 00:57:33;;;;;;;2.07;1.97;;;22.70;72.60;;;;;;5156955;27;20440;-84
2023/05/08 01:00:00;;;;;;;2.23;2.13;;;22.70;72.60;;;;;;5156747;27;20484;-85
2023/05/08 01:02:30;;;;;;;2.10;2.00;;;22.70;72.60;;;;;;5156852;27;20437;-84
2023/05/08 01:04:57;;;;;;;2.00;1.90;;;22.70;73.50;;;;;;5156702;27;20497;-84
2023/05/08 01:07:24;;;;;;;2.20;2.10;;;22.70;72.60;;;;;;5156767;27;20441;-84
2023/05/08 01:09:51;;;;;;;2.10;2.00;;;22.70;72.60;;;;;;5156619;27;20522;-84
2023/05/08 01:12:23;;;;;;;2.27;2.10;;;22.70;72.60;;;;;;5156593;27;20464;-84
2023/05/08 01:15:08;;;;;;;1.93;1.83;;;22.70;72.60;;;;;;5156437;27;20479;-84
2023/05/08 01:17:44;;;;;;;2.00;1.90;;;22.70;72.60;;;;;;5156657;27;20521;-84
2023/05/08 01:20:32;;;;;;;2.57;2.37;;;22.60;72.50;;;;;;5156513;27;20798;-85
2023/05/08 01:23:43;;;;;;;2.90;2.70;;;22.70;72.60;;;;;;5156453;27;20437;-84
2023/05/08 01:26:42;;;;;;;2.20;2.10;;;22.60;72.50;;;;;;5147727;27;20452;-84
2023/05/08 01:30:00;;;;;;;3.00;2.80;;;22.60;72.60;;;;;;5156234;27;20441;-84
2023/05/08 01:32:31;;;;;;;2.43;2.23;;;22.60;72.60;;;;;;5155456;27;20429;-84
2023/05/08 01:35:03;;;;;;;2.60;2.40;;;22.60;72.70;;;;;;5156146;27;20579;-85
2023/05/08 01:37:42;;;;;;;2.63;2.43;;;22.60;72.60;;;;;;5156274;27;20849;-84
2023/05/08 01:40:17;;;;;;;2.60;2.40;;;22.60;72.60;;;;;;5156055;27;20876;-84
2023/05/08 01:42:49;;;;;;;2.80;2.60;;;22.60;72.70;;;;;;5155975;27;20433;-84
2023/05/08 01:45:22;;;;;;;1.90;1.80;;;22.60;72.70;;;;;;5156066;27;20434;-84
2023/05/08 01:47:58;;;;;;;2.10;2.00;;;22.60;72.60;;;;;;5155993;27;20448;-84
2023/05/08 01:50:32;;;;;;;2.17;2.07;;;22.60;72.60;;;;;;5155686;27;20472;-84
2023/05/08 01:53:07;;;;;;;2.40;2.30;;;22.60;72.60;;;;;;5155827;27;20429;-85
2023/05/08 01:55:37;;;;;;;2.57;2.37;;;22.60;72.60;;;;;;5155733;27;20833;-85
2023/05/08 01:58:07;;;;;;;2.27;2.17;;;22.60;72.60;;;;;;5155686;27;20817;-84
2023/05/08 02:00:34;;;;;;;2.43;2.30;;;22.60;72.70;;;;;;5155754;27;20528;-85
2023/05/08 02:03:05;;;;;;;2.20;2.07;;;22.60;72.60;;;;;;5155686;27;20487;-84
2023/05/08 02:05:34;;;;;;;2.53;2.43;;;22.60;72.60;;;;;;5155595;27;20535;-85
2023/05/08 02:08:02;;;;;;;2.70;2.50;;;22.60;72.60;;;;;;5155540;27;20444;-85
2023/05/08 02:10:30;;;;;;;3.23;3.00;;;22.60;72.60;;;;;;5155465;27;20433;-84
2023/05/08 02:12:58;;;;;;;2.40;2.30;;;22.50;73.30;;;;;;5155503;27;20823;-84
2023/05/08 02:15:27;;;;;;;2.23;2.13;;;22.60;72.60;;;;;;5155288;27;20480;-84
2023/05/08 02:17:55;;;;;;;2.47;2.37;;;22.60;72.60;;;;;;5155322;27;20847;-84
2023/05/08 02:20:23;;;;;;;2.53;2.37;;;22.60;72.60;;;;;;5155087;27;20437;-84
2023/05/08 02:22:51;;;;;;;2.50;2.30;;;22.60;72.60;;;;;;5155143;27;20442;-84
2023/05/08 02:25:19;;;;;;;2.50;2.33;;;22.60;72.60;;;;;;5155340;27;20450;-84
2023/05/08 02:27:49;;;;;;;2.13;2.00;;;22.50;72.50;;;;;;5155149;27;20452;-84
2023/05/08 02:30:17;;;;;;;2.70;2.50;;;22.50;72.50;;;;;;5155102;27;20440;-84
2023/05/08 02:32:46;;;;;;;2.77;2.57;;;22.60;72.60;;;;;;5155233;27;20441;-84
2023/05/08 02:35:34;;;;;;;2.63;2.50;;;22.60;72.70;;;;;;5155029;27;20488;-84
2023/05/08 02:38:03;;;;;;;2.27;2.17;;;22.60;72.70;;;;;;5111530;28;20447;-84
2023/05/08 02:40:31;;;;;;;2.57;2.37;;;22.50;73.40;;;;;;5111562;28;21045;-84
2023/05/08 02:42:58;;;;;;;2.63;2.43;;;22.50;72.50;;;;;;5111621;28;20434;-84
2023/05/08 02:45:28;;;;;;;2.50;2.30;;;22.50;72.50;;;;;;5111645;28;20527;-84
2023/05/08 02:48:07;;;;;;;2.23;2.13;;;22.50;73.40;;;;;;5111615;28;20951;-84
2023/05/08 02:50:42;;;;;;;3.03;2.60;;;22.50;72.50;;;;;;5111329;28;21055;-84
2023/05/08 02:53:16;;;;;;;2.47;2.37;;;22.50;72.60;;;;;;5111599;28;20442;-84
2023/05/08 02:55:49;;;;;;;2.40;2.30;;;22.50;72.50;;;;;;5124762;27;20482;-84
2023/05/08 02:58:22;;;;;;;2.40;2.27;;;22.50;72.50;;;;;;5154854;27;20447;-85
2023/05/08 03:00:56;;;;;;;2.30;2.10;;;22.50;72.50;;;;;;5154863;27;20793;-84
2023/05/08 03:03:27;;;;;;;2.47;2.27;;;22.50;72.50;;;;;;5154875;27;21014;-84
2023/05/08 03:05:56;;;;;;;2.57;2.37;;;22.50;72.50;;;;;;5154797;27;20457;-84
2023/05/08 03:08:29;;;;;;;2.77;2.57;;;22.50;72.40;;;;;;5154696;27;20439;-84
2023/05/08 03:10:59;;;;;;;2.70;2.50;;;22.50;72.40;;;;;;5154705;27;20798;-84
2023/05/08 03:13:29;;;;;;;2.00;1.90;;;22.50;72.50;;;;;;5154720;27;20811;-84
2023/05/08 03:15:59;;;;;;;2.63;2.43;;;22.50;72.50;;;;;;5154458;27;20847;-84
2023/05/08 03:18:32;;;;;;;2.53;2.37;;;22.50;72.50;;;;;;5154545;27;20946;-84
2023/05/08 03:21:00;;;;;;;2.30;2.20;;;22.50;72.50;;;;;;5154714;27;20438;-84
2023/05/08 03:23:30;;;;;;;2.27;2.17;;;22.50;72.50;;;;;;5154596;27;20472;-84
2023/05/08 03:25:59;;;;;;;2.67;2.47;;;22.50;72.50;;;;;;5154637;27;20836;-84
2023/05/08 03:28:27;;;;;;;2.40;2.30;;;22.50;72.40;;;;;;5154462;27;20445;-84
2023/05/08 03:30:55;;;;;;;2.57;2.47;;;22.50;72.50;;;;;;5154526;27;20527;-84
2023/05/08 03:33:24;;;;;;;2.60;2.40;;;22.50;72.50;;;;;;5155846;27;20440;-84
2023/05/08 03:35:52;;;;;;;2.20;2.10;;;22.50;72.50;;;;;;5158311;27;20505;-84
2023/05/08 03:38:19;;;;;;;2.73;2.60;;;22.50;72.50;;;;;;5158353;27;20493;-84
2023/05/08 03:40:48;;;;;;;3.13;2.93;;;22.50;72.50;;;;;;5158468;27;20433;-84
2023/05/08 03:43:16;;;;;;;2.50;2.30;;;22.50;72.50;;;;;;5158316;27;20482;-84
2023/05/08 03:45:44;;;;;;;2.40;2.20;;;22.50;72.50;;;;;;5158291;27;20444;-84
2023/05/08 03:48:12;;;;;;;2.67;2.47;;;22.50;72.50;;;;;;5158278;27;20433;-84
2023/05/08 03:50:40;;;;;;;2.00;1.90;;;22.50;72.40;;;;;;5158100;27;20557;-84
2023/05/08 03:53:07;;;;;;;2.17;2.07;;;22.50;72.40;;;;;;5158269;27;20435;-85
2023/05/08 03:55:33;;;;;;;2.57;2.37;;;22.50;72.50;;;;;;5157983;27;20495;-84
2023/05/08 03:58:09;;;;;;;2.53;2.43;;;22.50;72.40;;;;;;5158120;27;20524;-84
2023/05/08 04:00:49;;;;;;;2.30;2.20;;;22.50;72.40;;;;;;5158102;27;20431;-85
2023/05/08 04:03:22;;;;;;;2.10;2.00;;;22.50;72.40;;;;;;5158154;27;20432;-83
2023/05/08 04:05:55;;;;;;;2.40;2.20;;;22.50;72.50;;;;;;5157888;27;20456;-84
2023/05/08 04:08:27;;;;;;;2.20;2.00;;;22.50;72.50;;;;;;5157961;27;20432;-83
2023/05/08 04:11:04;;;;;;;2.43;2.33;;;22.50;72.50;;;;;;5157882;27;20439;-84
2023/05/08 04:13:40;;;;;;;2.00;1.90;;;22.50;72.50;;;;;;5157883;27;20455;-84
2023/05/08 04:16:13;;;;;;;3.10;2.90;;;22.50;72.50;;;;;;5157528;27;20511;-84
2023/05/08 04:18:46;;;;;;;2.70;2.10;;;22.50;72.50;;;;;;5157835;27;20517;-84
2023/05/08 04:21:18;;;;;;;2.30;2.20;;;22.40;72.40;;;;;;5157694;27;20464;-84
2023/05/08 04:23:47;;;;;;;2.23;2.13;;;22.40;72.40;;;;;;5157678;27;20527;-84
2023/05/08 04:26:17;;;;;;;2.80;2.60;;;22.40;72.40;;;;;;5157479;27;20440;-84
2023/05/08 04:28:46;;;;;;;2.00;1.90;;;22.40;72.40;;;;;;5157443;27;20444;-84
2023/05/08 04:31:15;;;;;;;2.97;2.67;;;22.40;72.40;;;;;;5157470;27;20445;-84
2023/05/08 04:33:43;;;;;;;2.67;2.47;;;22.40;72.40;;;;;;5157453;27;20789;-84
2023/05/08 04:36:12;;;;;;;2.90;2.70;;;22.40;72.50;;;;;;5157081;27;20496;-84
2023/05/08 04:38:39;;;;;;;2.20;2.00;;;22.40;72.50;;;;;;5157235;27;20437;-84
2023/05/08 04:41:06;;;;;;;2.37;2.23;;;22.40;72.50;;;;;;5157264;27;20437;-84
2023/05/08 04:43:33;;;;;;;2.00;1.90;;;22.40;72.50;;;;;;5156873;27;20545;-84
2023/05/08 04:46:01;;;;;;;2.10;2.00;;;22.40;72.50;;;;;;5157181;27;20440;-84
2023/05/08 04:48:30;;;;;;;2.30;2.20;;;22.40;72.50;;;;;;5157131;27;20453;-84
2023/05/08 04:50:57;;;;;;;2.00;1.90;;;22.40;72.50;;;;;;5156981;27;20468;-84
2023/05/08 04:53:23;;;;;;;2.33;2.23;;;22.40;72.50;;;;;;5157103;27;20436;-84
2023/05/08 04:55:50;;;;;;;2.00;1.90;;;22.40;72.50;;;;;;5156673;27;20480;-84
2023/05/08 04:58:17;;;;;;;2.73;2.53;;;22.40;72.40;;;;;;5156874;27;20537;-84
2023/05/08 05:00:44;;;;;;;2.33;2.13;;;22.40;73.40;;;;;;5156895;27;20437;-84
2023/05/08 05:03:12;;;;;;;2.30;2.10;;;22.40;72.40;;;;;;5156961;27;20540;-84
2023/05/08 05:05:39;;;;;;;2.40;2.30;;;22.40;72.40;;;;;;5156702;27;20540;-84
2023/05/08 05:08:06;;;;;;;2.17;2.07;;;22.40;72.40;;;;;;5156714;27;20465;-84
2023/05/08 05:10:32;;;;;;;2.30;2.20;;;22.40;72.50;;;;;;5156726;27;20432;-84
2023/05/08 05:12:59;;;;;;;2.60;2.40;;;22.40;73.30;;;;;;5156585;27;20437;-84
2023/05/08 05:15:26;;;;;;;2.33;2.13;;;22.40;72.40;;;;;;5156736;27;20767;-83
2023/05/08 05:17:53;;;;;;;2.50;2.30;;;22.40;72.40;;;;;;5156320;27;20580;-84
2023/05/08 05:20:21;;;;;;;2.40;2.30;;;22.40;72.40;;;;;;5156412;27;20812;-83
2023/05/08 05:22:48;;;;;;;2.70;2.60;;;22.40;72.40;;;;;;5156417;27;20440;-84
2023/05/08 05:25:15;;;;;;;2.10;2.00;;;22.40;72.30;;;;;;5156328;27;20437;-84
2023/05/08 05:27:41;;;;;;;2.40;2.30;;;22.40;72.30;;;;;;5156350;27;20441;-84
2023/05/08 05:30:09;;;;;;;2.57;2.37;;;22.40;72.30;;;;;;5156232;27;20443;-84
2023/05/08 05:32:36;;;;;;;2.70;2.50;;;22.40;72.30;;;;;;5156315;27;20442;-85
2023/05/08 05:35:02;;;;;;;2.27;2.17;;;22.50;72.30;;;;;;5156033;27;20453;-84
2023/05/08 05:37:31;;;;;;;2.20;2.10;;;22.50;72.30;;;;;;5155981;27;20481;-84
2023/05/08 05:39:57;;;;;;;2.60;2.40;;;22.40;72.20;;;;;;5156160;27;20437;-84
2023/05/08 05:42:24;;;;;;;2.00;1.90;;;22.40;72.30;;;;;;5156059;27;20445;-85
2023/05/08 05:44:51;;;;;;;2.80;2.60;;;22.40;72.20;;;;;;5156017;27;20528;-84
2023/05/08 05:47:18;;;;;;;2.33;2.13;;;22.50;72.30;;;;;;5155929;27;20437;-84
2023/05/08 05:49:45;;;;;;;1.97;1.87;;;22.40;73.00;;;;;;5155685;27;20437;-84
2023/05/08 05:52:12;;;;;;;2.60;2.40;;;22.40;72.20;;;;;;5155834;27;20931;-83
2023/05/08 05:54:41;;;;;;;2.33;2.23;;;22.40;72.20;;;;;;5155734;27;20437;-84
2023/05/08 05:57:08;;;;;;;2.70;2.50;;;22.40;72.20;;;;;;5154840;27;20485;-84
2023/05/08 05:59:35;;;;;;;2.47;2.37;;;22.40;72.20;;;;;;5155709;27;20528;-84
2023/05/08 06:02:02;;;;;;;2.37;2.27;;;22.40;72.20;;;;;;5155671;27;20468;-83
2023/05/08 06:04:29;;;;;;;2.20;2.10;;;22.40;72.20;;;;;;5155720;27;20457;-84
2023/05/08 06:06:56;;;;;;;2.17;1.97;;;22.40;72.20;;;;;;5155494;27;20447;-84
2023/05/08 06:09:22;;;;;;;2.50;2.40;;;22.50;73.20;;;;;;5155487;27;20859;-84
2023/05/08 06:11:51;;;;;;;2.30;2.20;;;22.40;72.10;;;;;;5155459;27;20429;-84
2023/05/08 06:14:17;;;;;;;2.10;2.00;;;22.40;73.00;;;;;;5155436;27;20516;-84
2023/05/08 06:16:44;;;;;;;2.13;2.03;;;22.50;72.30;;;;;;5155417;27;20598;-84
2023/05/08 06:19:11;;;;;;;2.63;2.40;;;22.50;72.30;;;;;;5155307;27;20497;-84
2023/05/08 06:21:39;;;;;;;2.37;2.27;;;22.50;72.30;;;;;;5155354;27;20524;-85
2023/05/08 06:24:06;;;;;;;2.30;2.13;;;22.50;72.30;;;;;;5155228;27;20825;-84
2023/05/08 06:26:33;;;;;;;2.50;2.30;;;22.50;72.20;;;;;;5155137;27;20440;-84
2023/05/08 06:29:01;;;;;;;2.57;2.37;;;22.50;72.20;;;;;;5155203;27;20444;-84
2023/05/08 06:31:28;;;;;;;2.33;2.20;;;22.50;72.30;;;;;;5155114;27;20997;-84
2023/05/08 06:33:55;;;;;;;2.20;2.10;;;22.50;72.30;;;;;;5155025;27;20548;-85
2023/05/08 06:36:22;;;;;;;2.27;2.17;;;22.50;72.20;;;;;;5154806;27;20476;-84
2023/05/08 06:38:48;;;;;;;2.17;2.07;;;22.50;72.20;;;;;;5154941;27;20439;-84
2023/05/08 06:41:15;;;;;;;2.10;2.00;;;22.50;72.30;;;;;;5154939;27;20433;-84
2023/05/08 06:43:42;;;;;;;2.50;2.33;;;22.50;72.20;;;;;;5154990;27;20540;-85
2023/05/08 06:46:10;;;;;;;2.50;2.30;;;22.50;72.20;;;;;;5155034;27;20441;-85
2023/05/08 06:48:37;;;;;;;2.17;2.07;;;22.50;72.20;;;;;;5154886;27;20459;-85
2023/05/08 06:51:04;;;;;;;2.13;2.03;;;22.50;72.20;;;;;;5154638;27;20464;-84
2023/05/08 06:53:31;;;;;;;2.23;2.13;;;22.50;72.20;;;;;;5154903;27;20494;-84
2023/05/08 06:55:58;;;;;;;3.10;2.17;;;22.50;72.20;;;;;;5154677;27;20437;-84
2023/05/08 06:58:24;;;;;;;2.80;2.60;;;22.50;72.30;;;;;;5154758;27;20490;-84
2023/05/08 07:00:51;;;;;;;2.57;2.37;;;22.50;72.20;;;;;;5154738;27;20439;-84
2023/05/08 07:03:20;;;;;;;1.93;1.83;;;22.50;72.30;;;;;;5154864;27;20545;-85
2023/05/08 07:05:46;;;;;;;1.70;1.60;;;22.50;72.30;;;;;;5154718;27;20465;-84
2023/05/08 07:08:13;;;;;;;2.43;2.33;;;22.50;73.00;;;;;;5157630;27;20528;-84
2023/05/08 07:10:40;;;;;;;2.47;2.37;;;22.50;72.20;;;;;;5158985;27;20531;-84
2023/05/08 07:13:07;;;;;;;2.63;2.43;;;22.50;72.10;;;;;;5158966;27;20443;-84
2023/05/08 07:15:34;;;;;;;2.13;2.03;;;22.50;72.10;;;;;;5159082;27;20798;-84
2023/05/08 07:18:00;;;;;;;2.90;2.70;;;22.50;72.10;;;;;;5158966;27;20928;-84
2023/05/08 07:20:29;;;;;;;3.10;2.83;;;22.50;72.10;;;;;;5158950;27;20480;-84
2023/05/08 07:22:56;;;;;;;2.30;2.20;;;22.50;72.00;;;;;;5158762;27;20441;-84
2023/05/08 07:25:23;;;;;;;2.63;2.47;;;22.50;72.10;;;;;;5158713;27;20805;-84
2023/05/08 07:27:49;;;;;;;2.30;2.20;;;22.50;72.00;;;;;;5158602;27;20942;-84
2023/05/08 07:30:16;;;;;;;2.13;1.93;;;22.50;72.00;;;;;;5158710;27;20440;-84
2023/05/08 07:32:43;;;;;;;2.50;2.30;;;22.50;72.10;;;;;;5158527;27;20432;-84
2023/05/08 07:35:11;;;;;;;1.90;1.80;;;22.50;72.00;;;;;;5158540;27;20459;-84
2023/05/08 07:37:39;;;;;;;2.63;2.50;;;22.50;72.00;;;;;;5158226;27;20904;-85
2023/05/08 07:40:07;;;;;;;2.50;2.30;;;22.50;72.00;;;;;;5158362;27;20442;-84
2023/05/08 07:42:39;;;;;;;1.70;1.60;;;22.50;72.00;;;;;;5158464;27;20440;-84
2023/05/08 07:45:07;;;;;;;2.27;2.17;;;22.50;72.00;;;;;;5158368;27;20470;-84
2023/05/08 07:47:34;;;;;;;2.40;2.30;;;22.60;72.10;;;;;;5158382;27;20436;-84
2023/05/08 07:50:01;;;;;;;2.10;2.00;;;22.60;72.00;;;;;;5158043;27;20480;-83
2023/05/08 07:52:28;;;;;;;2.27;2.17;;;22.60;72.00;;;;;;5158306;27;20792;-84
2023/05/08 07:54:56;;;;;;;2.37;2.27;;;22.50;71.90;;;;;;5158135;27;20525;-84
2023/05/08 07:57:23;;;;;;;2.00;1.90;;;22.60;72.10;;;;;;5157924;27;20615;-84
2023/05/08 07:59:50;;;;;;;2.20;2.10;;;22.50;71.90;;;;;;5158054;27;20468;-84
2023/05/08 08:02:17;;;;;;;1.90;1.80;;;22.50;71.90;;;;;;5158082;27;20434;-84
2023/05/08 08:04:44;;;;;;;2.40;2.30;;;22.50;71.90;;;;;;5157788;27;20539;-84
2023/05/08 08:07:11;;;;;;;2.00;1.90;;;22.60;72.00;;;;;;5157985;27;20440;-83
2023/05/08 08:09:38;;;;;;;1.83;1.73;;;22.50;71.90;;;;;;5157854;27;20532;-84
2023/05/08 08:12:06;;;;;;;1.97;1.87;;;22.60;72.00;;;;;;5157806;27;20524;-84
2023/05/08 08:14:33;;;;;;;1.97;1.87;;;22.60;72.00;;;;;;5157803;27;20433;-84
2023/05/08 08:17:00;;;;;;;2.30;2.20;;;22.60;72.00;;;;;;5157544;27;20473;-84
2023/05/08 08:19:26;;;;;;;2.17;2.07;;;22.60;72.90;;;;;;5156907;27;20918;-84
2023/05/08 08:21:53;;;;;;;2.07;1.97;;;22.60;72.00;;;;;;5157632;27;20528;-84
2023/05/08 08:24:20;;;;;;;2.20;2.10;;;22.60;72.10;;;;;;5157666;27;20796;-84
2023/05/08 08:26:47;;;;;;;1.93;1.83;;;22.60;72.10;;;;;;5157672;27;20435;-84
2023/05/08 08:29:15;;;;;;;2.00;1.90;;;22.60;72.10;;;;;;5157482;27;20532;-84
2023/05/08 08:31:42;;;;;;;2.53;2.33;;;22.60;72.10;;;;;;5157427;27;21010;-84
2023/05/08 08:34:09;;;;;;;2.00;1.90;;;22.60;72.10;;;;;;5157425;27;20553;-84
2023/05/08 08:36:36;;;;;;;1.90;1.80;;;22.60;72.10;;;;;;5157246;27;20433;-84
2023/05/08 08:39:02;;;;;;;1.93;1.83;;;22.60;72.10;;;;;;5157218;27;20442;-84
2023/05/08 08:41:29;;;;;;;2.07;1.97;;;22.60;72.10;;;;;;5157296;27;20528;-84
2023/05/08 08:43:56;;;;;;;2.27;2.07;;;22.60;72.10;;;;;;5157225;27;20536;-84
2023/05/08 08:46:27;;;;;;;2.17;2.07;;;22.60;72.10;;;;;;5157304;27;20523;-84
2023/05/08 08:48:55;;;;;;;1.80;1.70;;;22.60;72.20;;;;;;5157215;27;20524;-84
2023/05/08 08:51:27;;;;;;;2.50;2.30;;;22.60;72.10;;;;;;5157006;27;20475;-85
2023/05/08 08:54:02;;;;;;;2.17;1.97;;;22.60;72.10;;;;;;5157181;27;20433;-84
2023/05/08 08:56:30;;;;;;;2.00;1.90;;;22.60;72.20;;;;;;5157081;27;20448;-84
2023/05/08 08:58:58;;;;;;;1.97;1.87;;;22.60;72.10;;;;;;5156861;27;20592;-84
2023/05/08 09:01:28;;;;;;;1.87;1.77;;;22.60;72.20;;;;;;5157007;27;20433;-84
2023/05/08 09:03:57;;;;;;;1.87;1.77;;;22.60;72.20;;;;;;5156863;27;20487;-85
2023/05/08 09:06:26;;;;;;;1.73;1.63;;;22.60;72.20;;;;;;5157030;27;20528;-84
2023/05/08 09:08:55;;;;;;;1.80;1.70;;;22.60;72.20;;;;;;5156845;27;20448;-84
2023/05/08 09:11:22;;;;;;;1.70;1.60;;;22.60;72.30;;;;;;5156909;27;20527;-84
2023/05/08 09:13:49;;;;;;;2.60;1.80;;;22.60;72.20;;;;;;5156693;27;20445;-84
2023/05/08 09:16:16;;;;;;;1.90;1.80;;;22.60;72.20;;;;;;5156628;27;20444;-84
2023/05/08 09:18:44;;;;;;;1.60;1.50;;;22.60;72.30;;;;;;5156606;27;20564;-84
2023/05/08 09:21:11;;;;;;;2.00;1.90;;;22.60;72.20;;;;;;5156537;27;20567;-84
2023/05/08 09:23:55;;;;;;;1.97;1.87;;;22.60;72.30;;;;;;5156531;27;20991;-85
2023/05/08 09:26:31;;;;;;;1.80;1.70;;;22.60;72.30;;;;;;5156402;27;20480;-84
2023/05/08 09:29:14;;;;;;;2.03;1.93;;;22.60;72.30;;;;;;5156443;27;20520;-84
2023/05/08 09:31:42;;;;;;;1.73;1.63;;;22.60;72.30;;;;;;5155276;27;20829;-85
2023/05/08 09:34:12;;;;;;;2.27;2.17;;;22.60;72.30;;;;;;5156216;27;20455;-84
2023/05/08 09:36:40;;;;;;;2.17;2.07;;;22.60;72.30;;;;;;5156177;27;20536;-84
2023/05/08 09:39:12;;;;;;;2.27;2.07;;;22.60;72.30;;;;;;5155915;27;20480;-84
2023/05/08 09:41:39;;;;;;;2.00;1.90;;;22.60;72.30;;;;;;5156196;27;20432;-84
2023/05/08 09:44:07;;;;;;;1.73;1.63;;;22.60;72.30;;;;;;5156162;27;20487;-84
2023/05/08 09:46:34;;;;;;;1.90;1.80;;;22.60;72.30;;;;;;5155874;27;20974;-84
2023/05/08 09:49:03;;;;;;;1.83;1.73;;;22.60;72.30;;;;;;5155948;27;20918;-84
2023/05/08 09:51:32;;;;;;;2.33;2.03;;;22.60;72.30;;;;;;5155575;27;20468;-84
2023/05/08 09:54:02;;;;;;;2.37;2.20;;;22.60;72.30;;;;;;5155890;27;21019;-85
2023/05/08 09:56:33;;;;;;;1.97;1.87;;;22.60;72.30;;;;;;5155697;27;20425;-84
2023/05/08 09:59:01;;;;;;;1.80;1.70;;;22.60;72.30;;;;;;5155782;27;20516;-84
2023/05/08 10:01:30;;;;;;;1.80;1.70;;;22.60;72.30;;;;;;5155722;27;20951;-85
2023/05/08 10:03:57;;;;;;;1.80;1.70;;;22.60;72.40;;;;;;5155699;27;20463;-84
2023/05/08 10:06:25;;;;;;;2.00;1.90;;;22.60;72.40;;;;;;5155652;27;20444;-84
2023/05/08 10:11:53;;;;;;;1.93;1.83;;;22.60;72.30;;;;;;5090946;28;20568;-85
2023/05/08 10:14:21;;;;;;;1.90;1.80;;;22.60;72.30;;;;;;5090707;28;20445;-85
2023/05/08 10:16:50;;;;;;;1.83;1.73;;;22.60;72.40;;;;;;5090692;28;20532;-85
2023/05/08 10:19:18;;;;;;;2.30;2.20;;;22.60;72.40;;;;;;5090661;28;20492;-85
2023/05/08 10:21:48;;;;;;;1.70;1.60;;;22.60;72.40;;;;;;5090665;28;20438;-85
2023/05/08 10:24:16;;;;;;;1.60;1.50;;;22.60;72.40;;;;;;5090622;28;20454;-85
2023/05/08 10:26:48;;;;;;;1.90;1.80;;;22.60;72.40;;;;;;5090526;28;20503;-85
2023/05/08 10:29:25;;;;;;;1.70;1.60;;;22.60;72.40;;;;;;5090474;28;20539;-85
2023/05/08 10:31:54;;;;;;;1.70;1.60;;;22.60;72.50;;;;;;5090420;28;20444;-85
2023/05/08 10:34:23;;;;;;;1.90;1.80;;;22.60;72.50;;;;;;5090406;28;20467;-85
2023/05/08 10:36:51;;;;;;;1.70;1.60;;;22.60;72.50;;;;;;5090261;28;20484;-86
2023/05/08 10:39:19;;;;;;;4.10;1.93;;;22.60;72.50;;;;;;5090300;28;20494;-86
2023/05/08 10:41:48;;;;;;;1.90;1.80;;;22.60;72.50;;;;;;5090333;28;20781;-85
2023/05/08 10:44:15;;;;;;;1.60;1.50;;;22.60;72.40;;;;;;5090235;28;20495;-85
2023/05/08 10:46:51;;;;;;;1.80;1.70;;;22.60;72.40;;;;;;5090238;28;20490;-85
2023/05/08 10:49:25;;;;;;;2.23;2.13;;;22.60;72.40;;;;;;5090132;28;20459;-85
2023/05/08 10:52:02;;;;;;;1.70;1.60;;;22.60;72.50;;;;;;5089982;28;20484;-85
2023/05/08 10:54:38;;;;;;;1.60;1.50;;;22.60;72.50;;;;;;5090088;28;20999;-85
2023/05/08 10:57:10;;;;;;;1.60;1.50;;;22.60;72.40;;;;;;5089938;28;20486;-83
2023/05/08 10:59:37;;;;;;;1.70;1.60;;;22.60;72.50;;;;;;5090023;28;20437;-85
2023/05/08 11:02:06;;;;;;;1.60;1.50;;;22.60;72.50;;;;;;5089891;28;20468;-85
2023/05/08 11:04:34;;;;;;;1.77;1.67;;;22.60;72.50;;;;;;5089715;28;20470;-85
2023/05/08 11:07:03;;;;;;;1.53;1.43;;;22.60;72.50;;;;;;5089800;28;20441;-86
2023/05/08 11:09:44;;;;;;;1.80;1.60;;;22.70;72.60;;;;;;5089430;28;20531;-85
2023/05/08 11:12:21;;;;;;;1.60;1.50;;;22.60;73.30;;;;;;5089669;28;20439;-85
2023/05/08 11:14:57;;;;;;;1.93;1.73;;;22.60;72.50;;;;;;5089757;28;20777;-85
2023/05/08 11:17:26;;;;;;;1.57;1.47;;;22.60;72.50;;;;;;5089467;28;20528;-86
2023/05/08 11:19:57;;;;;;;2.90;1.60;;;22.60;72.50;;;;;;5089539;28;20958;-85
2023/05/08 11:22:27;;;;;;;1.80;1.70;;;22.70;72.60;;;;;;5079747;28;20449;-85
2023/05/08 11:24:59;;;;;;;1.80;1.70;;;22.60;73.30;;;;;;5076011;28;20439;-85
2023/05/08 11:27:40;;;;;;;1.80;1.70;;;22.70;72.60;;;;;;5075886;28;20448;-85
2023/05/08 11:30:34;;;;;;;1.70;1.60;;;22.70;72.60;;;;;;5075912;28;20478;-85
2023/05/08 11:33:31;;;;;;;1.77;1.67;;;22.70;72.60;;;;;;5075852;28;20928;-86
2023/05/08 11:36:00;;;;;;;2.13;2.03;;;22.70;72.60;;;;;;5075716;28;20807;-85
2023/05/08 11:38:32;;;;;;;1.70;1.60;;;22.60;73.40;;;;;;5075692;28;20444;-85
2023/05/08 11:41:01;;;;;;;1.60;1.50;;;22.70;72.70;;;;;;5075620;28;20446;-85
2023/05/08 11:43:58;;;;;;;1.50;1.40;;;22.70;72.60;;;;;;5075655;28;20435;-85
2023/05/08 11:46:35;;;;;;;1.97;1.87;;;22.70;72.60;;;;;;5075668;28;20446;-85
2023/05/08 11:49:03;;;;;;;1.60;1.50;;;22.70;72.60;;;;;;5075431;28;20530;-85
2023/05/08 11:51:32;;;;;;;1.93;1.50;;;22.70;72.60;;;;;;5075464;28;20492;-85
2023/05/08 11:53:59;;;;;;;1.90;1.80;;;22.70;72.60;;;;;;5075421;28;20940;-85
2023/05/08 11:56:26;;;;;;;1.43;1.33;;;22.70;72.60;;;;;;5075225;28;20429;-85
2023/05/08 11:59:02;;;;;;;1.60;1.50;;;22.70;72.60;;;;;;5075328;28;20531;-85
2023/05/08 12:01:30;;;;;;;1.40;1.30;;;22.70;72.60;;;;;;5075366;28;20440;-85
2023/05/08 12:04:01;;;;;;;1.90;1.80;;;22.70;72.60;;;;;;5075300;28;20550;-85
2023/05/08 12:06:30;;;;;;;1.50;1.40;;;22.70;72.70;;;;;;5075211;28;20470;-85
2023/05/08 12:08:57;;;;;;;1.63;1.53;;;22.70;72.70;;;;;;5075144;28;20448;-85
2023/05/08 12:11:24;;;;;;;1.70;1.60;;;22.70;73.50;;;;;;5074759;28;20497;-85
2023/05/08 12:13:52;;;;;;;1.50;1.40;;;22.80;72.70;;;;;;5075002;28;20448;-85
2023/05/08 12:16:20;;;;;;;1.60;1.50;;;22.70;72.70;;;;;;5074912;28;20936;-86
2023/05/08 12:18:49;;;;;;;1.47;1.37;;;22.80;72.90;;;;;;5074996;28;20532;-85
2023/05/08 12:21:16;;;;;;;1.80;1.70;;;22.80;72.80;;;;;;5074919;28;20436;-85
2023/05/08 12:23:44;;;;;;;1.60;1.50;;;22.80;72.80;;;;;;5074897;28;20433;-83
2023/05/08 12:26:12;;;;;;;1.63;1.53;;;22.80;73.60;;;;;;5074760;28;20525;-86
2023/05/08 12:28:39;;;;;;;1.67;1.57;;;22.80;72.70;;;;;;5074605;28;20447;-83
2023/05/08 12:31:06;;;;;;;1.47;1.37;;;22.80;72.60;;;;;;5074540;28;20490;-86
2023/05/08 12:33:34;;;;;;;1.57;1.47;;;22.80;72.60;;;;;;5073735;28;20462;-85
2023/05/08 12:36:01;;;;;;;1.67;1.57;;;22.80;72.60;;;;;;5074486;28;20440;-85
2023/05/08 12:38:29;;;;;;;1.40;1.30;;;22.80;72.70;;;;;;5074541;28;20449;-85
2023/05/08 12:40:57;;;;;;;1.63;1.53;;;22.80;72.60;;;;;;5074511;28;20443;-86
2023/05/08 12:43:32;;;;;;;1.77;1.67;;;22.80;72.50;;;;;;5074405;28;20499;-85
2023/05/08 12:45:58;;;;;;;1.60;1.50;;;22.80;72.60;;;;;;5074378;28;20444;-85
2023/05/08 12:48:26;;;;;;;1.50;1.40;;;22.80;72.60;;;;;;5074408;28;20792;-85
2023/05/08 12:50:53;;;;;;;1.60;1.50;;;22.80;72.60;;;;;;5074228;28;20490;-85
2023/05/08 12:53:21;;;;;;;1.50;1.40;;;22.80;72.60;;;;;;5074140;28;20451;-85
2023/05/08 12:55:53;;;;;;;1.40;1.30;;;22.80;72.60;;;;;;5074064;28;20467;-85
2023/05/08 12:58:25;;;;;;;1.47;1.37;;;22.80;72.60;;;;;;5074020;28;20442;-85
2023/05/08 13:00:54;;;;;;;1.40;1.30;;;22.90;72.80;;;;;;5074108;28;20933;-83
2023/05/08 13:03:26;;;;;;;1.33;1.23;;;22.80;73.50;;;;;;5073929;28;20797;-85